sensor_id;sensor_type;location;lat;lon;timestamp;pressure;altitude;pressure_sealevel;temperature;humidity
23241;BME280;11789;53.482;9.862;2023-03-04T00:01:10;102180.53;;;3.79;100.00
23241;BME280;11789;53.482;9.862;2023-03-04T00:03:36;102177.38;;;3.85;100.00
23241;BME280;11789;53.482;9.862;2023-03-04T00:06:02;102178.41;;;3.88;100.00
23241;BME280;11789;53.482;9.862;2023-03-04T00:08:27;102169.94;;;3.89;100.00
23241;BME280;11789;53.482;9.862;2023-03-04T00:10:53;102173.50;;;3.93;100.00
23241;BME280;11789;53.482;9.862;2023-03-04T00:13:18;102170.03;;;3.91;100.00
23241;BME280;11789;53.482;9.862;2023-03-04T00:15:47;102173.59;;;3.95;100.00
23241;BME280;11789;53.482;9.862;2023-03-04T00:18:13;102160.00;;;3.96;100.00
23241;BME280;11789;53.482;9.862;2023-03-04T00:20:38;102163.50;;;3.98;100.00
23241;BME280;11789;53.482;9.862;2023-03-04T00:23:04;102167.75;;;3.97;100.00
23241;BME280;11789;53.482;9.862;2023-03-04T00:25:29;102172.13;;;4.00;100.00
23241;BME280;11789;53.482;9.862;2023-03-04T00:27:55;102177.38;;;4.03;100.00
23241;BME280;11789;53.482;9.862;2023-03-04T00:30:22;102165.47;;;4.03;100.00
23241;BME280;11789;53.482;9.862;2023-03-04T00:32:49;102159.41;;;4.01;100.00
23241;BME280;11789;53.482;9.862;2023-03-04T00:35:15;102165.41;;;4.02;100.00
23241;BME280;11789;53.482;9.862;2023-03-04T00:37:40;102171.41;;;4.02;100.00
23241;BME280;11789;53.482;9.862;2023-03-04T00:40:06;102163.78;;;4.04;100.00
23241;BME280;11789;53.482;9.862;2023-03-04T00:42:31;102162.97;;;4.05;100.00
23241;BME280;11789;53.482;9.862;2023-03-04T00:44:57;102146.75;;;4.04;100.00
23241;BME280;11789;53.482;9.862;2023-03-04T00:47:22;102142.50;;;4.05;100.00
23241;BME280;11789;53.482;9.862;2023-03-04T00:49:48;102148.50;;;4.05;100.00
23241;BME280;11789;53.482;9.862;2023-03-04T00:52:13;102147.63;;;4.05;100.00
23241;BME280;11789;53.482;9.862;2023-03-04T00:54:39;102139.06;;;4.04;100.00
23241;BME280;11789;53.482;9.862;2023-03-04T00:57:04;102139.06;;;4.04;100.00
23241;BME280;11789;53.482;9.862;2023-03-04T00:59:31;102137.38;;;4.05;100.00
23241;BME280;11789;53.482;9.862;2023-03-04T01:01:56;102136.59;;;4.06;100.00
23241;BME280;11789;53.482;9.862;2023-03-04T01:04:22;102136.59;;;4.06;100.00
23241;BME280;11789;53.482;9.862;2023-03-04T01:06:47;102137.38;;;4.05;100.00
23241;BME280;11789;53.482;9.862;2023-03-04T01:09:12;102133.00;;;4.02;100.00
23241;BME280;11789;53.482;9.862;2023-03-04T01:11:38;102133.00;;;4.02;100.00
23241;BME280;11789;53.482;9.862;2023-03-04T01:14:03;102125.34;;;4.02;100.00
23241;BME280;11789;53.482;9.862;2023-03-04T01:16:29;102128.72;;;4.01;100.00
23241;BME280;11789;53.482;9.862;2023-03-04T01:18:54;102112.53;;;4.02;100.00
23241;BME280;11789;53.482;9.862;2023-03-04T01:21:20;102124.47;;;4.02;100.00
23241;BME280;11789;53.482;9.862;2023-03-04T01:23:45;102124.47;;;4.02;100.00
23241;BME280;11789;53.482;9.862;2023-03-04T01:26:11;102119.34;;;4.02;100.00
23241;BME280;11789;53.482;9.862;2023-03-04T01:28:36;102122.72;;;4.01;100.00
23241;BME280;11789;53.482;9.862;2023-03-04T01:31:02;102118.53;;;4.03;100.00
23241;BME280;11789;53.482;9.862;2023-03-04T01:33:29;102108.28;;;4.03;100.00
23241;BME280;11789;53.482;9.862;2023-03-04T01:35:54;102102.38;;;4.04;100.00
23241;BME280;11789;53.482;9.862;2023-03-04T01:38:21;102091.25;;;4.03;100.00
23241;BME280;11789;53.482;9.862;2023-03-04T01:40:46;102086.09;;;4.02;100.00
23241;BME280;11789;53.482;9.862;2023-03-04T01:43:19;102080.97;;;4.02;100.00
23241;BME280;11789;53.482;9.862;2023-03-04T01:45:48;102071.53;;;4.01;100.00
23241;BME280;11789;53.482;9.862;2023-03-04T01:48:18;102080.00;;;4.00;100.00
23241;BME280;11789;53.482;9.862;2023-03-04T01:50:45;102063.78;;;3.99;100.00
23241;BME280;11789;53.482;9.862;2023-03-04T01:53:18;102070.63;;;4.00;100.00
23241;BME280;11789;53.482;9.862;2023-03-04T01:55:45;102066.44;;;4.01;100.00
23241;BME280;11789;53.482;9.862;2023-03-04T01:58:11;102069.91;;;4.03;100.00
23241;BME280;11789;53.482;9.862;2023-03-04T02:00:37;102056.97;;;4.00;100.00
23241;BME280;11789;53.482;9.862;2023-03-04T02:03:06;102059.69;;;4.03;100.00
23241;BME280;11789;53.482;9.862;2023-03-04T02:05:34;102055.28;;;4.00;100.00
23241;BME280;11789;53.482;9.862;2023-03-04T02:08:02;102053.53;;;3.99;100.00
23241;BME280;11789;53.482;9.862;2023-03-04T02:10:29;102056.97;;;4.00;100.00
23241;BME280;11789;53.482;9.862;2023-03-04T02:12:54;102049.28;;;4.00;100.00
23241;BME280;11789;53.482;9.862;2023-03-04T02:15:20;102059.53;;;4.00;100.00
23241;BME280;11789;53.482;9.862;2023-03-04T02:17:46;102053.69;;;4.02;100.00
23241;BME280;11789;53.482;9.862;2023-03-04T02:23:19;102046.94;;;4.04;100.00
23241;BME280;11789;53.482;9.862;2023-03-04T02:25:49;102041.00;;;4.05;100.00
23241;BME280;11789;53.482;9.862;2023-03-04T02:28:17;102036.00;;;4.07;100.00
23241;BME280;11789;53.482;9.862;2023-03-04T02:30:43;102030.06;;;4.08;100.00
23241;BME280;11789;53.482;9.862;2023-03-04T02:33:18;102026.69;;;4.09;100.00
23241;BME280;11789;53.482;9.862;2023-03-04T02:35:44;102028.38;;;4.08;100.00
23241;BME280;11789;53.482;9.862;2023-03-04T02:38:10;102020.75;;;4.10;100.00
23241;BME280;11789;53.482;9.862;2023-03-04T02:40:38;102010.59;;;4.11;100.00
23241;BME280;11789;53.482;9.862;2023-03-04T02:43:05;102009.72;;;4.11;100.00
23241;BME280;11789;53.482;9.862;2023-03-04T02:45:43;102011.47;;;4.12;100.00
23241;BME280;11789;53.482;9.862;2023-03-04T02:48:10;102012.34;;;4.12;100.00
23241;BME280;11789;53.482;9.862;2023-03-04T02:50:43;102013.28;;;4.14;100.00
23241;BME280;11789;53.482;9.862;2023-03-04T02:53:09;102011.59;;;4.15;100.00
23241;BME280;11789;53.482;9.862;2023-03-04T02:55:34;102007.44;;;4.17;100.00
23241;BME280;11789;53.482;9.862;2023-03-04T02:58:00;101999.87;;;4.20;100.00
23241;BME280;11789;53.482;9.862;2023-03-04T03:00:26;101999.00;;;4.20;100.00
23241;BME280;11789;53.482;9.862;2023-03-04T03:02:52;102005.94;;;4.22;100.00
23241;BME280;11789;53.482;9.862;2023-03-04T03:05:18;101997.41;;;4.22;100.00
23241;BME280;11789;53.482;9.862;2023-03-04T03:07:43;102008.63;;;4.25;100.00
23241;BME280;11789;53.482;9.862;2023-03-04T03:10:10;102000.94;;;4.25;100.00
23241;BME280;11789;53.482;9.862;2023-03-04T03:12:36;101998.47;;;4.27;100.00
23241;BME280;11789;53.482;9.862;2023-03-04T03:15:01;101995.81;;;4.25;100.00
23241;BME280;11789;53.482;9.862;2023-03-04T03:17:26;101995.78;;;4.24;100.00
23241;BME280;11789;53.482;9.862;2023-03-04T03:19:52;102000.00;;;4.23;100.00
23241;BME280;11789;53.482;9.862;2023-03-04T03:22:17;101990.59;;;4.22;100.00
23241;BME280;11789;53.482;9.862;2023-03-04T03:24:43;101984.50;;;4.20;100.00
23241;BME280;11789;53.482;9.862;2023-03-04T03:27:08;101987.84;;;4.18;100.00
23241;BME280;11789;53.482;9.862;2023-03-04T03:29:34;101986.88;;;4.15;100.00
23241;BME280;11789;53.482;9.862;2023-03-04T03:31:59;101992.91;;;4.16;100.00
23241;BME280;11789;53.482;9.862;2023-03-04T03:34:25;101991.12;;;4.15;100.00
23241;BME280;11789;53.482;9.862;2023-03-04T03:36:50;101979.09;;;4.12;100.00
23241;BME280;11789;53.482;9.862;2023-03-04T03:39:15;101981.69;;;4.14;100.00
23241;BME280;11789;53.482;9.862;2023-03-04T03:41:41;101976.56;;;4.14;100.00
23241;BME280;11789;53.482;9.862;2023-03-04T03:44:07;101979.13;;;4.14;100.00
23241;BME280;11789;53.482;9.862;2023-03-04T03:46:32;101974.78;;;4.11;100.00
23241;BME280;11789;53.482;9.862;2023-03-04T03:48:59;101972.84;;;4.06;100.00
23241;BME280;11789;53.482;9.862;2023-03-04T03:51:25;101974.62;;;4.08;100.00
23241;BME280;11789;53.482;9.862;2023-03-04T03:53:51;101971.19;;;4.08;100.00
23241;BME280;11789;53.482;9.862;2023-03-04T03:56:16;101969.37;;;4.05;100.00
23241;BME280;11789;53.482;9.862;2023-03-04T03:58:41;101969.37;;;4.05;100.00
23241;BME280;11789;53.482;9.862;2023-03-04T04:01:07;101965.00;;;4.03;100.00
23241;BME280;11789;53.482;9.862;2023-03-04T04:03:33;101965.94;;;4.05;100.00
23241;BME280;11789;53.482;9.862;2023-03-04T04:05:59;101961.63;;;4.04;100.00
23241;BME280;11789;53.482;9.862;2023-03-04T04:08:24;101959.22;;;4.07;100.00
23241;BME280;11789;53.482;9.862;2023-03-04T04:10:50;101960.81;;;4.05;100.00
23241;BME280;11789;53.482;9.862;2023-03-04T04:13:15;101958.16;;;4.02;100.00
23241;BME280;11789;53.482;9.862;2023-03-04T04:15:40;101952.22;;;4.03;100.00
23241;BME280;11789;53.482;9.862;2023-03-04T04:18:06;101955.59;;;4.02;100.00
23241;BME280;11789;53.482;9.862;2023-03-04T04:20:32;101960.72;;;4.02;100.00
23241;BME280;11789;53.482;9.862;2023-03-04T04:22:58;101958.22;;;4.03;100.00
23241;BME280;11789;53.482;9.862;2023-03-04T04:25:23;101958.22;;;4.03;100.00
23241;BME280;11789;53.482;9.862;2023-03-04T04:27:49;101957.38;;;4.04;100.00
23241;BME280;11789;53.482;9.862;2023-03-04T04:30:14;101954.78;;;4.03;100.00
23241;BME280;11789;53.482;9.862;2023-03-04T04:32:40;101956.31;;;3.99;100.00
23241;BME280;11789;53.482;9.862;2023-03-04T04:35:06;101957.06;;;3.97;100.00
23241;BME280;11789;53.482;9.862;2023-03-04T04:37:32;101962.03;;;3.94;100.00
23241;BME280;11789;53.482;9.862;2023-03-04T04:39:57;101961.94;;;3.90;100.00
23241;BME280;11789;53.482;9.862;2023-03-04T04:42:23;101956.81;;;3.90;100.00
23241;BME280;11789;53.482;9.862;2023-03-04T04:44:48;101959.22;;;3.87;100.00
23241;BME280;11789;53.482;9.862;2023-03-04T04:47:14;101958.28;;;3.85;100.00
23241;BME280;11789;53.482;9.862;2023-03-04T04:49:39;101946.16;;;3.81;100.00
23241;BME280;11789;53.482;9.862;2023-03-04T04:52:05;101944.44;;;3.80;100.00
23241;BME280;11789;53.482;9.862;2023-03-04T04:54:30;101943.62;;;3.81;100.00
23241;BME280;11789;53.482;9.862;2023-03-04T04:56:56;101950.31;;;3.79;100.00
23241;BME280;11789;53.482;9.862;2023-03-04T04:59:21;101943.47;;;3.78;100.00
23241;BME280;11789;53.482;9.862;2023-03-04T05:01:47;101942.59;;;3.78;100.00
23241;BME280;11789;53.482;9.862;2023-03-04T05:04:12;101940.03;;;3.78;100.00
23241;BME280;11789;53.482;9.862;2023-03-04T05:06:39;101946.03;;;3.78;100.00
23241;BME280;11789;53.482;9.862;2023-03-04T05:09:05;101938.34;;;3.78;100.00
23241;BME280;11789;53.482;9.862;2023-03-04T05:11:31;101934.97;;;3.79;100.00
23241;BME280;11789;53.482;9.862;2023-03-04T05:13:57;101938.28;;;3.77;100.00
23241;BME280;11789;53.482;9.862;2023-03-04T05:16:23;101934.87;;;3.76;100.00
23241;BME280;11789;53.482;9.862;2023-03-04T05:18:48;101938.28;;;3.77;100.00
23241;BME280;11789;53.482;9.862;2023-03-04T05:21:14;101936.59;;;3.77;100.00
23241;BME280;11789;53.482;9.862;2023-03-04T05:23:41;101939.16;;;3.77;100.00
23241;BME280;11789;53.482;9.862;2023-03-04T05:26:09;101935.72;;;3.77;100.00
23241;BME280;11789;53.482;9.862;2023-03-04T05:28:36;101929.66;;;3.75;100.00
23241;BME280;11789;53.482;9.862;2023-03-04T05:31:02;101939.00;;;3.74;100.00
23241;BME280;11789;53.482;9.862;2023-03-04T05:33:27;101938.09;;;3.72;100.00
23241;BME280;11789;53.482;9.862;2023-03-04T05:35:53;101938.91;;;3.71;100.00
23241;BME280;11789;53.482;9.862;2023-03-04T05:38:19;101940.69;;;3.74;100.00
23241;BME280;11789;53.482;9.862;2023-03-04T05:40:45;101928.06;;;3.77;100.00
23241;BME280;11789;53.482;9.862;2023-03-04T05:43:11;101939.31;;;3.80;100.00
23241;BME280;11789;53.482;9.862;2023-03-04T05:45:37;101935.06;;;3.81;100.00
23241;BME280;11789;53.482;9.862;2023-03-04T05:48:04;101945.41;;;3.84;100.00
23241;BME280;11789;53.482;9.862;2023-03-04T05:50:30;101943.72;;;3.84;100.00
23241;BME280;11789;53.482;9.862;2023-03-04T05:52:56;101946.44;;;3.87;100.00
23241;BME280;11789;53.482;9.862;2023-03-04T05:55:22;101935.31;;;3.87;100.00
23241;BME280;11789;53.482;9.862;2023-03-04T05:57:47;101946.38;;;3.86;100.00
23241;BME280;11789;53.482;9.862;2023-03-04T06:00:14;101940.44;;;3.87;100.00
23241;BME280;11789;53.482;9.862;2023-03-04T06:02:42;101953.28;;;3.88;100.00
23241;BME280;11789;53.482;9.862;2023-03-04T06:05:08;101945.56;;;3.87;100.00
23241;BME280;11789;53.482;9.862;2023-03-04T06:07:35;101947.38;;;3.89;100.00
23241;BME280;11789;53.482;9.862;2023-03-04T06:10:00;101943.06;;;3.88;100.00
23241;BME280;11789;53.482;9.862;2023-03-04T06:12:26;101945.56;;;3.87;100.00
23241;BME280;11789;53.482;9.862;2023-03-04T06:14:53;101944.59;;;3.85;100.00
23241;BME280;11789;53.482;9.862;2023-03-04T06:17:18;101951.41;;;3.84;100.00
23241;BME280;11789;53.482;9.862;2023-03-04T06:19:44;101947.16;;;3.85;100.00
23241;BME280;11789;53.482;9.862;2023-03-04T06:22:09;101949.53;;;3.80;100.00
23241;BME280;11789;53.482;9.862;2023-03-04T06:24:35;101949.53;;;3.80;100.00
23241;BME280;11789;53.482;9.862;2023-03-04T06:27:01;101952.88;;;3.79;100.00
23241;BME280;11789;53.482;9.862;2023-03-04T06:29:27;101948.53;;;3.77;100.00
23241;BME280;11789;53.482;9.862;2023-03-04T06:31:53;101955.37;;;3.78;100.00
23241;BME280;11789;53.482;9.862;2023-03-04T06:34:18;101957.12;;;3.79;100.00
23241;BME280;11789;53.482;9.862;2023-03-04T06:36:44;101970.00;;;3.80;100.00
23241;BME280;11789;53.482;9.862;2023-03-04T06:39:10;101960.69;;;3.82;100.00
23241;BME280;11789;53.482;9.862;2023-03-04T06:41:35;101966.69;;;3.83;100.00
23241;BME280;11789;53.482;9.862;2023-03-04T06:44:01;101971.09;;;3.85;100.00
23241;BME280;11789;53.482;9.862;2023-03-04T06:46:27;101966.63;;;3.81;100.00
23241;BME280;11789;53.482;9.862;2023-03-04T06:48:52;101964.75;;;3.77;100.00
23241;BME280;11789;53.482;9.862;2023-03-04T06:51:18;101986.94;;;3.78;98.57
23241;BME280;11789;53.482;9.862;2023-03-04T06:53:44;101982.66;;;3.77;97.98
23241;BME280;11789;53.482;9.862;2023-03-04T06:56:11;101980.03;;;3.76;98.80
23241;BME280;11789;53.482;9.862;2023-03-04T06:58:37;101979.88;;;3.73;99.56
23241;BME280;11789;53.482;9.862;2023-03-04T07:01:17;101976.72;;;3.78;98.04
23241;BME280;11789;53.482;9.862;2023-03-04T07:03:44;101974.81;;;3.74;98.71
23241;BME280;11789;53.482;9.862;2023-03-04T07:06:11;101985.91;;;3.75;98.49
23241;BME280;11789;53.482;9.862;2023-03-04T07:08:36;101975.63;;;3.73;99.11
23241;BME280;11789;53.482;9.862;2023-03-04T07:11:02;101974.81;;;3.74;99.72
23241;BME280;11789;53.482;9.862;2023-03-04T07:13:28;101973.94;;;3.74;99.68
23241;BME280;11789;53.482;9.862;2023-03-04T07:15:53;101985.87;;;3.73;100.00
23241;BME280;11789;53.482;9.862;2023-03-04T07:18:18;101972.16;;;3.71;100.00
23241;BME280;11789;53.482;9.862;2023-03-04T07:20:44;101983.19;;;3.70;100.00
23241;BME280;11789;53.482;9.862;2023-03-04T07:23:09;101984.84;;;3.70;100.00
23241;BME280;11789;53.482;9.862;2023-03-04T07:25:35;101984.94;;;3.71;100.00
23241;BME280;11789;53.482;9.862;2023-03-04T07:28:00;101992.59;;;3.71;100.00
23241;BME280;11789;53.482;9.862;2023-03-04T07:30:26;101991.78;;;3.72;100.00
23241;BME280;11789;53.482;9.862;2023-03-04T07:32:52;101981.63;;;3.74;100.00
23241;BME280;11789;53.482;9.862;2023-03-04T07:35:17;101996.03;;;3.72;99.14
23241;BME280;11789;53.482;9.862;2023-03-04T07:37:43;102000.28;;;3.71;98.04
23241;BME280;11789;53.482;9.862;2023-03-04T07:40:09;102002.75;;;3.70;97.83
23241;BME280;11789;53.482;9.862;2023-03-04T07:42:35;102001.00;;;3.69;94.86
23241;BME280;11789;53.482;9.862;2023-03-04T07:45:01;101996.75;;;3.69;93.44
23241;BME280;11789;53.482;9.862;2023-03-04T07:47:27;102000.88;;;3.66;92.91
23241;BME280;11789;53.482;9.862;2023-03-04T07:49:52;101996.47;;;3.63;92.08
23241;BME280;11789;53.482;9.862;2023-03-04T07:52:18;101995.66;;;3.64;93.08
23241;BME280;11789;53.482;9.862;2023-03-04T07:54:44;102000.66;;;3.61;93.01
23241;BME280;11789;53.482;9.862;2023-03-04T07:57:09;101989.56;;;3.60;93.75
23241;BME280;11789;53.482;9.862;2023-03-04T07:59:35;101986.25;;;3.63;92.51
23241;BME280;11789;53.482;9.862;2023-03-04T08:02:00;102000.66;;;3.61;92.53
23241;BME280;11789;53.482;9.862;2023-03-04T08:04:26;101996.37;;;3.60;93.59
23241;BME280;11789;53.482;9.862;2023-03-04T08:06:51;101998.16;;;3.62;93.36
23241;BME280;11789;53.482;9.862;2023-03-04T08:09:17;102006.87;;;3.66;92.87
23241;BME280;11789;53.482;9.862;2023-03-04T08:11:42;102006.72;;;3.63;93.92
23241;BME280;11789;53.482;9.862;2023-03-04T08:14:11;102002.47;;;3.63;94.91
23241;BME280;11789;53.482;9.862;2023-03-04T08:16:36;102013.56;;;3.64;95.14
23241;BME280;11789;53.482;9.862;2023-03-04T08:19:03;102000.88;;;3.66;94.82
23241;BME280;11789;53.482;9.862;2023-03-04T08:21:29;102011.09;;;3.66;96.09
23241;BME280;11789;53.482;9.862;2023-03-04T08:23:57;102011.97;;;3.66;97.06
23241;BME280;11789;53.482;9.862;2023-03-04T08:26:30;102009.47;;;3.68;98.37
23241;BME280;11789;53.482;9.862;2023-03-04T08:29:01;102006.87;;;3.66;98.68
23241;BME280;11789;53.482;9.862;2023-03-04T08:31:26;102015.47;;;3.68;98.95
23241;BME280;11789;53.482;9.862;2023-03-04T08:33:52;102016.44;;;3.70;97.39
23241;BME280;11789;53.482;9.862;2023-03-04T08:36:18;102020.59;;;3.68;96.23
23241;BME280;11789;53.482;9.862;2023-03-04T08:38:44;102007.78;;;3.68;95.10
23241;BME280;11789;53.482;9.862;2023-03-04T08:41:09;102018.03;;;3.68;95.57
23241;BME280;11789;53.482;9.862;2023-03-04T08:43:35;102028.25;;;3.68;97.18
23241;BME280;11789;53.482;9.862;2023-03-04T08:46:01;102023.13;;;3.68;97.68
23241;BME280;11789;53.482;9.862;2023-03-04T08:48:26;102029.87;;;3.66;97.01
23241;BME280;11789;53.482;9.862;2023-03-04T08:50:52;102023.91;;;3.66;96.09
23241;BME280;11789;53.482;9.862;2023-03-04T08:53:19;102016.22;;;3.66;96.45
23241;BME280;11789;53.482;9.862;2023-03-04T08:55:45;102029.00;;;3.66;95.86
23241;BME280;11789;53.482;9.862;2023-03-04T08:58:11;102028.12;;;3.65;93.03
23241;BME280;11789;53.482;9.862;2023-03-04T09:00:39;102025.59;;;3.65;90.91
23241;BME280;11789;53.482;9.862;2023-03-04T09:03:05;102025.59;;;3.65;90.73
23241;BME280;11789;53.482;9.862;2023-03-04T09:05:31;102027.22;;;3.64;89.37
23241;BME280;11789;53.482;9.862;2023-03-04T09:07:57;102022.12;;;3.64;88.19
23241;BME280;11789;53.482;9.862;2023-03-04T09:10:23;102032.28;;;3.63;88.92
23241;BME280;11789;53.482;9.862;2023-03-04T09:12:49;102031.47;;;3.64;87.76
23241;BME280;11789;53.482;9.862;2023-03-04T09:15:14;102030.69;;;3.65;86.86
23241;BME280;11789;53.482;9.862;2023-03-04T09:17:40;102028.12;;;3.65;85.65
23241;BME280;11789;53.482;9.862;2023-03-04T09:20:07;102028.19;;;3.67;85.69
23241;BME280;11789;53.482;9.862;2023-03-04T09:22:35;102029.06;;;3.67;86.46
23241;BME280;11789;53.482;9.862;2023-03-04T09:25:01;102024.88;;;3.69;86.29
23241;BME280;11789;53.482;9.862;2023-03-04T09:27:26;102019.00;;;3.70;86.55
23241;BME280;11789;53.482;9.862;2023-03-04T09:29:52;102020.75;;;3.71;87.63
23241;BME280;11789;53.482;9.862;2023-03-04T09:32:17;102025.91;;;3.73;87.51
23241;BME280;11789;53.482;9.862;2023-03-04T09:34:43;102031.84;;;3.72;87.42
23241;BME280;11789;53.482;9.862;2023-03-04T09:37:09;102036.09;;;3.71;87.49
23241;BME280;11789;53.482;9.862;2023-03-04T09:39:34;102028.53;;;3.74;86.33
23241;BME280;11789;53.482;9.862;2023-03-04T09:42:01;102020.84;;;3.74;85.79
23241;BME280;11789;53.482;9.862;2023-03-04T09:44:29;102027.75;;;3.75;87.60
23241;BME280;11789;53.482;9.862;2023-03-04T09:47:00;102022.81;;;3.80;84.41
23241;BME280;11789;53.482;9.862;2023-03-04T09:49:27;102020.34;;;3.81;85.08
23241;BME280;11789;53.482;9.862;2023-03-04T09:52:16;102010.13;;;3.81;86.14
23241;BME280;11789;53.482;9.862;2023-03-04T09:57:46;102026.47;;;3.85;87.26
23241;BME280;11789;53.482;9.862;2023-03-04T10:00:25;102019.69;;;3.85;87.71
23241;BME280;11789;53.482;9.862;2023-03-04T10:05:40;102022.38;;;3.88;89.96
23241;BME280;11789;53.482;9.862;2023-03-04T10:10:45;102027.63;;;3.92;87.34
23241;BME280;11789;53.482;9.862;2023-03-04T10:13:16;102030.19;;;3.92;88.09
23241;BME280;11789;53.482;9.862;2023-03-04T10:15:47;102031.94;;;3.93;88.02
23241;BME280;11789;53.482;9.862;2023-03-04T10:21:01;102015.97;;;3.98;88.49
23241;BME280;11789;53.482;9.862;2023-03-04T10:23:30;102014.19;;;3.96;89.21
23241;BME280;11789;53.482;9.862;2023-03-04T10:25:58;102011.62;;;3.96;89.92
23241;BME280;11789;53.482;9.862;2023-03-04T10:28:29;102007.38;;;3.96;89.97
23241;BME280;11789;53.482;9.862;2023-03-04T10:31:04;102014.22;;;3.97;90.43
23241;BME280;11789;53.482;9.862;2023-03-04T10:33:35;102018.47;;;3.97;91.11
23241;BME280;11789;53.482;9.862;2023-03-04T10:38:59;102025.28;;;3.96;91.15
23241;BME280;11789;53.482;9.862;2023-03-04T10:41:27;102031.13;;;3.94;91.69
23241;BME280;11789;53.482;9.862;2023-03-04T10:44:03;102024.19;;;3.91;91.10
23241;BME280;11789;53.482;9.862;2023-03-04T10:46:29;102028.50;;;3.92;89.85
23241;BME280;11789;53.482;9.862;2023-03-04T10:48:55;102020.16;;;3.96;87.00
23241;BME280;11789;53.482;9.862;2023-03-04T10:51:22;102015.25;;;4.01;85.14
23241;BME280;11789;53.482;9.862;2023-03-04T10:53:50;102008.78;;;4.09;85.55
23241;BME280;11789;53.482;9.862;2023-03-04T10:59:27;102020.34;;;4.20;80.78
23241;BME280;11789;53.482;9.862;2023-03-04T11:01:53;102018.41;;;4.14;79.43
23241;BME280;11789;53.482;9.862;2023-03-04T11:04:23;102009.84;;;4.14;79.77
23241;BME280;11789;53.482;9.862;2023-03-04T11:06:52;102015.84;;;4.14;79.79
23241;BME280;11789;53.482;9.862;2023-03-04T11:09:24;102016.81;;;4.16;80.39
23241;BME280;11789;53.482;9.862;2023-03-04T11:11:52;102005.69;;;4.16;80.03
23241;BME280;11789;53.482;9.862;2023-03-04T11:14:24;102003.13;;;4.16;79.66
23241;BME280;11789;53.482;9.862;2023-03-04T11:19:46;102017.94;;;4.23;79.71
23241;BME280;11789;53.482;9.862;2023-03-04T11:22:15;102010.41;;;4.26;79.49
23241;BME280;11789;53.482;9.862;2023-03-04T11:24:42;102005.34;;;4.28;79.11
23241;BME280;11789;53.482;9.862;2023-03-04T11:27:16;102008.78;;;4.28;78.24
23241;BME280;11789;53.482;9.862;2023-03-04T11:29:51;102013.00;;;4.28;79.10
23241;BME280;11789;53.482;9.862;2023-03-04T11:32:26;102011.31;;;4.28;78.43
23241;BME280;11789;53.482;9.862;2023-03-04T11:35:01;102003.59;;;4.27;78.76
23241;BME280;11789;53.482;9.862;2023-03-04T11:37:52;102005.12;;;4.23;79.70
23241;BME280;11789;53.482;9.862;2023-03-04T11:40:32;102005.12;;;4.23;80.43
23241;BME280;11789;53.482;9.862;2023-03-04T11:43:23;101997.47;;;4.23;80.46
23241;BME280;11789;53.482;9.862;2023-03-04T11:56:42;101993.97;;;4.21;82.67
23241;BME280;11789;53.482;9.862;2023-03-04T12:01:54;101994.03;;;4.23;84.38
23241;BME280;11789;53.482;9.862;2023-03-04T12:07:21;101978.47;;;4.18;87.42
23241;BME280;11789;53.482;9.862;2023-03-04T12:15:21;101989.78;;;4.23;89.89
23241;BME280;11789;53.482;9.862;2023-03-04T12:28:41;101984.56;;;4.01;91.59
23241;BME280;11789;53.482;9.862;2023-03-04T12:31:28;101981.91;;;3.99;90.39
23241;BME280;11789;53.482;9.862;2023-03-04T12:37:29;101972.06;;;4.08;90.77
23241;BME280;11789;53.482;9.862;2023-03-04T12:43:02;101962.97;;;4.15;90.29
23241;BME280;11789;53.482;9.862;2023-03-04T12:56:50;101957.31;;;4.22;86.94
23241;BME280;11789;53.482;9.862;2023-03-04T12:59:19;101961.00;;;4.29;87.08
23241;BME280;11789;53.482;9.862;2023-03-04T13:01:52;101953.38;;;4.30;85.19
23241;BME280;11789;53.482;9.862;2023-03-04T13:09:37;101937.88;;;4.47;78.03
23241;BME280;11789;53.482;9.862;2023-03-04T13:12:18;101949.97;;;4.51;76.76
23241;BME280;11789;53.482;9.862;2023-03-04T13:17:50;101941.69;;;4.56;75.58
23241;BME280;11789;53.482;9.862;2023-03-04T13:41:21;101931.34;;;4.55;71.25
23241;BME280;11789;53.482;9.862;2023-03-04T13:43:55;101940.69;;;4.53;71.67
23241;BME280;11789;53.482;9.862;2023-03-04T13:56:31;101940.88;;;4.57;71.26
23241;BME280;11789;53.482;9.862;2023-03-04T14:01:35;101936.03;;;4.65;73.68
23241;BME280;11789;53.482;9.862;2023-03-04T14:04:11;101939.47;;;4.65;73.81
23241;BME280;11789;53.482;9.862;2023-03-04T14:06:42;101936.81;;;4.62;74.20
23241;BME280;11789;53.482;9.862;2023-03-04T14:09:13;101943.47;;;4.59;74.90
23241;BME280;11789;53.482;9.862;2023-03-04T14:11:40;101939.00;;;4.53;74.40
23241;BME280;11789;53.482;9.862;2023-03-04T14:14:11;101933.62;;;4.47;74.24
23241;BME280;11789;53.482;9.862;2023-03-04T14:16:59;101931.75;;;4.43;74.36
23241;BME280;11789;53.482;9.862;2023-03-04T14:19:28;101935.03;;;4.40;75.17
23241;BME280;11789;53.482;9.862;2023-03-04T14:21:54;101941.66;;;4.35;75.70
23241;BME280;11789;53.482;9.862;2023-03-04T14:24:21;101945.13;;;4.36;76.45
23241;BME280;11789;53.482;9.862;2023-03-04T14:26:47;101931.41;;;4.35;75.32
23241;BME280;11789;53.482;9.862;2023-03-04T14:29:23;101941.53;;;4.32;75.33
23241;BME280;11789;53.482;9.862;2023-03-04T14:31:49;101934.78;;;4.34;75.47
23241;BME280;11789;53.482;9.862;2023-03-04T14:34:25;101927.28;;;4.39;74.03
23241;BME280;11789;53.482;9.862;2023-03-04T14:36:52;101934.97;;;4.39;73.67
23241;BME280;11789;53.482;9.862;2023-03-04T14:39:19;101931.75;;;4.43;74.36
23241;BME280;11789;53.482;9.862;2023-03-04T14:41:46;101924.78;;;4.40;73.98
23241;BME280;11789;53.482;9.862;2023-03-04T14:44:23;101935.84;;;4.39;74.47
23241;BME280;11789;53.482;9.862;2023-03-04T14:46:59;101928.84;;;4.35;74.98
23241;BME280;11789;53.482;9.862;2023-03-04T14:49:26;101932.22;;;4.34;75.16
23241;BME280;11789;53.482;9.862;2023-03-04T14:51:53;101922.84;;;4.35;75.49